createdAt,value
2022-10-17T00:00:23.089Z,535.85
2022-10-17T00:03:11.474Z,512.50
2022-10-17T00:05:59.388Z,508.83
2022-10-17T00:08:48.703Z,547.45
2022-10-17T00:11:36.924Z,505.05
2022-10-17T00:14:24.860Z,528.53
2022-10-17T00:17:12.898Z,529.30
2022-10-17T00:20:01.846Z,539.78
2022-10-17T00:22:49.883Z,514.33
2022-10-17T00:25:40.512Z,533.95
2022-10-17T00:28:29.011Z,515.05
2022-10-17T00:31:19.166Z,500.17
2022-10-17T00:34:07.055Z,526.58
2022-10-17T00:36:54.956Z,532.28
2022-10-17T00:39:42.880Z,555.65
2022-10-17T00:42:32.101Z,523.35
2022-10-17T00:45:24.617Z,541.50
2022-10-17T00:48:13.799Z,518.05
2022-10-17T00:51:01.759Z,527.55
2022-10-17T00:53:51.739Z,514.95
2022-10-17T00:56:40.661Z,530.65
2022-10-17T00:59:31.334Z,518.97
2022-10-17T01:02:21.607Z,530.13
2022-10-17T01:05:10.961Z,515.72
2022-10-17T01:07:59.039Z,534.25
2022-10-17T01:11:02.127Z,530.22
2022-10-17T01:13:59.628Z,507.77
2022-10-17T01:16:55.150Z,501.85
2022-10-17T01:20:00.307Z,505.13
2022-10-17T01:22:53.132Z,500.55
2022-10-17T01:25:54.299Z,521.17
2022-10-17T01:29:06.843Z,511.75
2022-10-17T01:32:00.953Z,487.92
2022-10-17T01:34:59.216Z,517.90
2022-10-17T01:40:50.559Z,515.00
2022-10-17T01:43:42.964Z,515.60
2022-10-17T01:46:36.426Z,505.67
2022-10-17T01:49:29.322Z,496.05
2022-10-17T01:52:21.702Z,499.92
2022-10-17T01:55:15.024Z,515.90
2022-10-17T01:58:08.758Z,492.90
2022-10-17T02:00:59.445Z,509.40
2022-10-17T02:03:52.044Z,523.85
2022-10-17T02:06:41.333Z,504.40
2022-10-17T02:09:32.568Z,512.63
2022-10-17T02:12:43.139Z,508.27
2022-10-17T02:16:01.803Z,526.28
2022-10-17T02:19:08.198Z,488.77
2022-10-17T02:22:07.848Z,515.08
2022-10-17T02:25:03.832Z,519.55
2022-10-17T02:27:55.837Z,512.90
2022-10-17T02:30:48.022Z,531.40
2022-10-17T02:33:39.964Z,510.27
2022-10-17T02:36:31.852Z,522.42
2022-10-17T02:39:23.282Z,497.55
2022-10-17T02:42:13.942Z,480.70
2022-10-17T02:45:03.593Z,498.67
2022-10-17T02:47:58.796Z,476.98
2022-10-17T02:50:58.821Z,503.30
2022-10-17T02:53:56.208Z,500.15
2022-10-17T02:56:51.432Z,490.95
2022-10-17T02:59:42.058Z,490.42
2022-10-17T03:02:30.422Z,547.08
2022-10-17T03:05:21.444Z,517.80
2022-10-17T03:08:09.393Z,488.05
2022-10-17T03:10:57.374Z,536.55
2022-10-17T03:13:49.062Z,527.80
2022-10-17T03:16:38.099Z,519.30
2022-10-17T03:19:26.493Z,520.78
2022-10-17T03:22:14.908Z,533.92
2022-10-17T03:25:06.716Z,528.83
2022-10-17T03:27:59.166Z,508.50
2022-10-17T03:30:48.693Z,497.80
2022-10-17T03:33:37.796Z,505.17
2022-10-17T03:36:25.831Z,525.47
2022-10-17T03:39:15.461Z,526.05
2022-10-17T03:42:03.643Z,523.83
2022-10-17T03:44:51.600Z,521.58
2022-10-17T03:47:40.895Z,551.63
2022-10-17T03:50:28.946Z,528.88
2022-10-17T03:53:18.063Z,513.60
2022-10-17T03:56:15.276Z,517.60
2022-10-17T03:59:04.118Z,500.85
2022-10-17T04:01:54.876Z,508.50
2022-10-17T04:04:44.810Z,512.60
2022-10-17T04:07:32.896Z,508.33
2022-10-17T04:10:21.868Z,509.65
2022-10-17T04:13:10.290Z,506.50
2022-10-17T04:16:00.344Z,502.48
2022-10-17T04:18:48.358Z,508.08
2022-10-17T04:21:37.789Z,514.08
2022-10-17T04:24:28.855Z,546.72
2022-10-17T04:27:26.744Z,514.40
2022-10-17T04:30:15.957Z,525.92
2022-10-17T04:33:05.547Z,507.95
2022-10-17T04:35:58.401Z,521.05
2022-10-17T04:38:48.045Z,526.08
2022-10-17T04:41:36.037Z,518.92
2022-10-17T04:44:33.995Z,509.77
2022-10-17T04:47:22.382Z,517.10
2022-10-17T04:50:10.661Z,527.33
2022-10-17T04:53:00.616Z,523.58
2022-10-17T04:55:49.977Z,502.83
2022-10-17T04:58:38.195Z,516.58
2022-10-17T05:01:27.617Z,489.65
2022-10-17T05:04:15.549Z,518.08
2022-10-17T05:07:04.455Z,500.92
2022-10-17T05:10:04.632Z,531.78
2022-10-17T05:12:55.669Z,492.80
2022-10-17T05:15:47.528Z,529.80
2022-10-17T05:18:37.499Z,502.77
2022-10-17T05:21:27.722Z,500.05
2022-10-17T05:24:16.406Z,490.92
2022-10-17T05:27:05.016Z,488.08
2022-10-17T05:29:54.548Z,496.08
2022-10-17T05:32:48.976Z,483.95
2022-10-17T05:35:37.609Z,487.08
2022-10-17T05:38:27.305Z,482.60
2022-10-17T05:41:16.101Z,482.02
2022-10-17T05:44:05.633Z,494.52
2022-10-17T05:47:04.433Z,471.88
2022-10-17T05:49:52.874Z,500.00
2022-10-17T05:52:54.720Z,439.58
2022-10-17T05:55:44.136Z,476.98
2022-10-17T05:58:49.244Z,501.60
2022-10-17T06:02:10.370Z,478.35
2022-10-17T06:04:38.077Z,467.50
2022-10-17T06:07:06.420Z,487.00
2022-10-17T06:09:36.606Z,494.77
2022-10-17T06:12:04.692Z,522.60
2022-10-17T06:14:32.927Z,489.85
2022-10-17T06:17:03.278Z,503.80
2022-10-17T06:19:32.488Z,489.00
2022-10-17T06:22:00.185Z,497.30
2022-10-17T06:24:29.406Z,449.52
2022-10-17T06:26:58.021Z,491.60
2022-10-17T06:29:25.735Z,504.70
2022-10-17T06:31:53.959Z,518.97
2022-10-17T06:34:21.843Z,517.53
2022-10-17T06:36:51.089Z,487.80
2022-10-17T06:39:20.297Z,485.08
2022-10-17T06:42:05.948Z,486.48
2022-10-17T06:44:56.301Z,485.55
2022-10-17T06:47:38.510Z,487.73
2022-10-17T06:50:23.462Z,503.58
2022-10-17T06:53:10.943Z,503.42
2022-10-17T06:56:02.792Z,516.70
2022-10-17T06:58:46.965Z,488.40
2022-10-17T07:01:24.807Z,502.38
2022-10-17T07:03:56.877Z,513.10
2022-10-17T07:06:25.106Z,495.08
2022-10-17T07:08:56.530Z,520.65
2022-10-17T07:11:25.822Z,557.60
2022-10-17T07:13:53.822Z,516.47
2022-10-17T07:16:22.837Z,519.50
2022-10-17T07:19:02.867Z,520.90
2022-10-17T07:21:38.987Z,512.78
2022-10-17T07:24:09.613Z,505.58
2022-10-17T07:26:37.596Z,488.30
2022-10-17T07:29:06.352Z,500.85
2022-10-17T07:31:40.807Z,473.02
2022-10-17T07:34:08.590Z,477.67
2022-10-17T07:36:36.505Z,494.13
2022-10-17T07:39:06.287Z,486.17
2022-10-17T07:41:37.803Z,489.92
2022-10-17T07:44:06.154Z,498.17
2022-10-17T07:46:38.426Z,503.95
2022-10-17T07:49:06.707Z,503.52
2022-10-17T07:51:34.891Z,511.73
2022-10-17T07:54:02.666Z,496.85
2022-10-17T07:56:30.362Z,505.83
2022-10-17T07:59:00.807Z,522.45
2022-10-17T08:01:31.346Z,532.10
2022-10-17T08:03:58.933Z,516.50
2022-10-17T08:06:26.546Z,528.72
2022-10-17T08:08:54.170Z,539.60
2022-10-17T08:11:23.192Z,513.55
2022-10-17T08:13:50.834Z,528.08
2022-10-17T08:16:19.953Z,573.53
2022-10-17T08:18:47.553Z,529.67
2022-10-17T08:21:15.361Z,529.00
2022-10-17T08:23:43.163Z,547.25
2022-10-17T08:26:13.362Z,559.42
2022-10-17T08:28:41.663Z,533.63
2022-10-17T08:31:10.893Z,551.28
2022-10-17T08:33:40.227Z,549.42
2022-10-17T08:36:09.188Z,558.67
2022-10-17T08:38:43.033Z,522.85
2022-10-17T08:41:21.112Z,564.85
2022-10-17T08:44:06.476Z,562.67
2022-10-17T08:46:37.778Z,549.97
2022-10-17T08:49:13.413Z,529.33
2022-10-17T08:51:48.825Z,506.55
2022-10-17T08:54:20.894Z,555.22
2022-10-17T08:56:51.666Z,558.80
2022-10-17T08:59:24.342Z,573.85
2022-10-17T09:01:59.546Z,588.92
2022-10-17T09:05:01.556Z,551.90
2022-10-17T09:07:37.840Z,568.00
2022-10-17T09:10:12.514Z,563.70
2022-10-17T09:12:49.677Z,569.53
2022-10-17T09:15:53.791Z,535.30
2022-10-17T09:18:27.413Z,530.83
2022-10-17T09:21:00.992Z,527.10
2022-10-17T09:23:32.125Z,541.05
2022-10-17T09:26:01.847Z,509.05
2022-10-17T09:28:34.313Z,534.78
2022-10-17T09:31:04.849Z,549.30
2022-10-17T09:33:53.273Z,546.03
2022-10-17T09:36:29.053Z,533.72
2022-10-17T09:38:59.204Z,570.25
2022-10-17T09:41:49.989Z,543.00
2022-10-17T09:44:21.634Z,555.03
2022-10-17T09:47:14.917Z,516.38
2022-10-17T09:49:44.565Z,514.33
2022-10-17T09:52:16.094Z,502.98
2022-10-17T09:54:47.707Z,476.48
2022-10-17T09:57:17.368Z,510.52
2022-10-17T09:59:47.639Z,493.23
2022-10-17T10:02:21.622Z,488.60
2022-10-17T10:05:05.626Z,479.30
2022-10-17T10:07:40.055Z,474.70
2022-10-17T10:10:23.772Z,490.08
2022-10-17T10:13:05.848Z,486.77
2022-10-17T10:15:37.489Z,451.08
2022-10-17T10:21:11.760Z,504.48
2022-10-17T10:23:41.928Z,476.50
2022-10-17T10:26:25.329Z,466.42
2022-10-17T10:28:56.790Z,499.70
2022-10-17T10:31:31.524Z,461.40
2022-10-17T10:34:02.806Z,452.35
2022-10-17T10:36:54.526Z,481.35
2022-10-17T10:39:35.611Z,462.95
2022-10-17T10:42:06.233Z,468.98
2022-10-17T10:44:35.297Z,456.95
2022-10-17T10:47:24.986Z,460.67
2022-10-17T10:49:54.666Z,460.50
2022-10-17T10:52:32.511Z,471.55
2022-10-17T10:55:18.402Z,486.30
2022-10-17T10:57:48.455Z,463.40
2022-10-17T11:00:20.455Z,458.85
2022-10-17T11:02:56.428Z,487.05
2022-10-17T11:05:40.494Z,471.13
2022-10-17T11:08:15.998Z,475.10
2022-10-17T11:10:57.297Z,451.52
2022-10-17T11:13:28.852Z,455.63
2022-10-17T11:16:00.968Z,477.23
2022-10-17T11:18:34.302Z,471.13
2022-10-17T11:21:06.889Z,471.10
2022-10-17T11:23:41.303Z,468.27
2022-10-17T11:26:25.737Z,456.35
2022-10-17T11:28:53.937Z,459.70
2022-10-17T11:31:24.293Z,437.17
2022-10-17T11:33:58.046Z,465.13
2022-10-17T11:36:30.098Z,451.02
2022-10-17T11:39:01.702Z,445.80
2022-10-17T11:41:36.149Z,468.27
2022-10-17T11:44:12.704Z,461.00
2022-10-17T11:46:42.416Z,446.30
2022-10-17T11:49:19.188Z,456.98
2022-10-17T11:52:00.909Z,444.63
2022-10-17T11:54:35.683Z,466.65
2022-10-17T11:57:20.416Z,482.92
2022-10-17T12:00:03.966Z,470.77
2022-10-17T12:02:41.419Z,468.33
2022-10-17T12:05:21.064Z,452.60
2022-10-17T12:07:56.344Z,452.20
2022-10-17T12:10:36.578Z,464.83
2022-10-17T12:13:41.871Z,442.67
2022-10-17T12:16:39.906Z,454.25
2022-10-17T12:19:30.852Z,456.63
2022-10-17T12:22:01.507Z,434.48
2022-10-17T12:24:35.899Z,433.70
2022-10-17T12:27:32.639Z,442.25
2022-10-17T12:30:01.572Z,417.20
2022-10-17T12:32:46.875Z,435.77
2022-10-17T12:35:22.986Z,433.60
2022-10-17T12:38:24.188Z,426.42
2022-10-17T12:40:54.359Z,436.75
2022-10-17T12:43:40.567Z,433.75
2022-10-17T12:46:12.282Z,431.52
2022-10-17T12:49:37.020Z,444.25
2022-10-17T12:52:25.003Z,447.63
2022-10-17T12:55:15.080Z,434.58
2022-10-17T12:57:49.856Z,420.75
2022-10-17T13:00:22.519Z,438.98
2022-10-17T13:02:53.160Z,422.88
2022-10-17T13:05:29.400Z,428.38
2022-10-17T13:08:01.818Z,427.98
2022-10-17T13:10:33.162Z,423.25
2022-10-17T13:13:07.565Z,419.23
2022-10-17T13:15:37.969Z,425.67
2022-10-17T13:18:06.292Z,441.83
2022-10-17T13:20:34.156Z,445.02
2022-10-17T13:23:03.752Z,418.92
2022-10-17T13:25:33.240Z,438.20
2022-10-17T13:28:11.846Z,444.70
2022-10-17T13:30:39.665Z,421.48
2022-10-17T13:33:28.686Z,433.63
2022-10-17T13:36:00.374Z,429.83
2022-10-17T13:38:34.855Z,416.90
2022-10-17T13:41:30.558Z,454.77
2022-10-17T13:43:53.033Z,446.15
2022-10-17T13:46:39.122Z,422.45
2022-10-17T13:49:13.688Z,441.90
2022-10-17T13:51:45.456Z,419.23
2022-10-17T13:54:33.136Z,425.27
2022-10-17T13:57:01.959Z,413.02
2022-10-17T13:59:34.192Z,416.73
2022-10-17T14:02:02.642Z,411.17
2022-10-17T14:04:39.991Z,418.98
2022-10-17T14:07:25.383Z,399.10
2022-10-17T14:09:54.643Z,407.23
2022-10-17T14:12:23.308Z,412.67
2022-10-17T14:15:10.721Z,414.70
2022-10-17T14:17:39.281Z,416.73
2022-10-17T14:20:47.812Z,399.15
2022-10-17T14:23:21.074Z,404.75
2022-10-17T14:25:45.361Z,411.40
2022-10-17T14:28:15.814Z,402.05
2022-10-17T14:30:56.365Z,419.75
2022-10-17T14:33:29.441Z,419.40
2022-10-17T14:36:01.467Z,420.80
2022-10-17T14:38:30.656Z,410.23
2022-10-17T14:41:29.625Z,432.50
2022-10-17T14:43:55.188Z,408.08
2022-10-17T14:46:22.874Z,425.45
2022-10-17T14:48:55.641Z,434.58
2022-10-17T14:51:23.256Z,442.83
2022-10-17T14:54:05.813Z,428.20
2022-10-17T14:56:43.183Z,416.85
2022-10-17T14:59:12.597Z,418.08
2022-10-17T15:01:45.820Z,448.08
2022-10-17T15:04:13.397Z,426.23
2022-10-17T15:06:41.315Z,450.23
2022-10-17T15:09:10.324Z,433.00
2022-10-17T15:11:38.360Z,419.80
2022-10-17T15:14:07.301Z,419.00
2022-10-17T15:16:37.043Z,413.83
2022-10-17T15:19:04.648Z,444.65
2022-10-17T15:21:39.623Z,442.80
2022-10-17T15:24:09.565Z,428.70
2022-10-17T15:26:37.883Z,414.33
2022-10-17T15:29:07.243Z,449.85
2022-10-17T15:31:35.846Z,467.30
2022-10-17T15:34:03.494Z,486.15
2022-10-17T15:36:35.046Z,506.15
2022-10-17T15:39:02.921Z,491.65
2022-10-17T15:41:32.818Z,514.80
2022-10-17T15:44:01.193Z,495.75
2022-10-17T15:46:33.641Z,505.52
2022-10-17T15:49:04.277Z,534.20
2022-10-17T15:51:31.947Z,533.67
2022-10-17T15:54:01.393Z,527.42
2022-10-17T15:56:32.486Z,535.35
2022-10-17T15:59:00.120Z,542.30
2022-10-17T16:01:31.023Z,539.97
2022-10-17T16:03:59.330Z,543.20
2022-10-17T16:06:27.541Z,571.42
2022-10-17T16:08:55.146Z,549.75
2022-10-17T16:11:29.856Z,568.47
2022-10-17T16:13:59.987Z,563.47
2022-10-17T16:16:28.037Z,590.08
2022-10-17T16:18:57.439Z,602.70
2022-10-17T16:21:32.355Z,618.63
2022-10-17T16:24:00.536Z,599.15
2022-10-17T16:26:29.359Z,622.95
2022-10-17T16:28:58.052Z,626.47
2022-10-17T16:31:29.148Z,639.85
2022-10-17T16:33:59.636Z,636.10
2022-10-17T16:36:27.520Z,629.13
2022-10-17T16:38:55.244Z,626.58
2022-10-17T16:41:25.095Z,634.70
2022-10-17T16:43:55.667Z,637.25
2022-10-17T16:46:24.287Z,589.58
2022-10-17T16:48:52.253Z,593.80
2022-10-17T16:51:22.108Z,617.60
2022-10-17T16:53:54.173Z,609.92
2022-10-17T16:56:24.533Z,618.60
2022-10-17T16:58:52.588Z,597.15
2022-10-17T17:01:23.009Z,603.63
2022-10-17T17:03:51.811Z,583.70
2022-10-17T17:06:24.208Z,606.33
2022-10-17T17:08:51.950Z,623.25
2022-10-17T17:11:22.476Z,605.35
2022-10-17T17:13:50.244Z,638.97
2022-10-17T17:16:19.970Z,590.28
2022-10-17T17:18:49.090Z,610.08
2022-10-17T17:21:16.729Z,632.63
2022-10-17T17:23:45.899Z,620.15
2022-10-17T17:26:14.968Z,600.88
2022-10-17T17:28:43.729Z,629.28
2022-10-17T17:31:14.617Z,585.58
2022-10-17T17:33:43.410Z,597.13
2022-10-17T17:36:13.685Z,532.33
2022-10-17T17:38:42.078Z,598.75
2022-10-17T17:41:12.879Z,552.92
2022-10-17T17:43:40.561Z,569.90
2022-10-17T17:46:09.070Z,566.33
2022-10-17T17:48:38.180Z,563.08
2022-10-17T17:51:06.667Z,554.75
2022-10-17T17:53:34.910Z,549.72
2022-10-17T17:56:03.321Z,526.05
2022-10-17T17:58:32.694Z,549.17
2022-10-17T18:01:00.639Z,565.05
2022-10-17T18:03:28.829Z,556.80
2022-10-17T18:05:56.453Z,551.65
2022-10-17T18:08:24.048Z,540.50
2022-10-17T18:10:56.322Z,566.92
2022-10-17T18:13:23.908Z,533.08
2022-10-17T18:15:57.858Z,547.00
2022-10-17T18:18:26.020Z,541.30
2022-10-17T18:20:54.282Z,534.42
2022-10-17T18:23:22.044Z,539.28
2022-10-17T18:25:56.644Z,524.63
2022-10-17T18:28:24.662Z,527.25
2022-10-17T18:30:54.115Z,538.47
2022-10-17T18:33:22.114Z,521.28
2022-10-17T18:35:49.714Z,560.67
2022-10-17T18:38:17.299Z,523.45
2022-10-17T18:40:47.321Z,533.45
2022-10-17T18:43:18.203Z,504.08
2022-10-17T18:45:45.814Z,534.13
2022-10-17T18:48:14.780Z,542.15
2022-10-17T18:50:42.355Z,537.08
2022-10-17T18:53:09.953Z,521.15
2022-10-17T18:55:40.158Z,505.73
2022-10-17T18:58:07.804Z,550.30
2022-10-17T19:00:35.395Z,513.13
2022-10-17T19:03:04.102Z,536.55
2022-10-17T19:05:34.696Z,537.05
2022-10-17T19:08:02.300Z,539.63
2022-10-17T19:10:29.968Z,549.95
2022-10-17T19:12:57.703Z,535.40
2022-10-17T19:15:26.079Z,530.88
2022-10-17T19:17:53.904Z,556.33
2022-10-17T19:20:21.596Z,525.78
2022-10-17T19:22:50.561Z,559.10
2022-10-17T19:25:18.271Z,562.35
2022-10-17T19:27:45.943Z,534.95
2022-10-17T19:30:13.547Z,545.88
2022-10-17T19:32:41.917Z,538.10
2022-10-17T19:35:11.122Z,533.28
2022-10-17T19:37:38.951Z,548.00
2022-10-17T19:40:09.524Z,526.97
2022-10-17T19:42:37.179Z,530.22
2022-10-17T19:45:05.511Z,538.20
2022-10-17T19:47:33.577Z,522.22
2022-10-17T19:50:01.352Z,517.15
2022-10-17T19:52:29.368Z,517.67
2022-10-17T19:54:57.171Z,510.35
2022-10-17T19:57:26.314Z,521.90
2022-10-17T19:59:55.978Z,523.53
2022-10-17T20:02:23.878Z,530.33
2022-10-17T20:05:18.550Z,523.15
2022-10-17T20:08:07.251Z,531.85
2022-10-17T20:10:55.147Z,535.55
2022-10-17T20:13:45.673Z,504.88
2022-10-17T20:16:36.086Z,533.67
2022-10-17T20:19:24.048Z,537.83
2022-10-17T20:22:11.916Z,517.13
2022-10-17T20:24:59.808Z,520.20
2022-10-17T20:27:47.771Z,532.25
2022-10-17T20:30:37.095Z,500.83
2022-10-17T20:33:31.708Z,502.15
2022-10-17T20:36:23.176Z,548.50
2022-10-17T20:39:12.159Z,503.20
2022-10-17T20:42:00.109Z,516.95
2022-10-17T20:44:48.399Z,550.88
2022-10-17T20:47:47.167Z,516.80
2022-10-17T20:50:38.284Z,500.02
2022-10-17T20:53:36.882Z,523.45
2022-10-17T20:56:27.092Z,520.05
2022-10-17T20:59:16.862Z,511.50
2022-10-17T21:02:05.419Z,496.70
2022-10-17T21:04:54.721Z,523.03
2022-10-17T21:07:42.674Z,527.13
2022-10-17T21:10:35.502Z,527.35
2022-10-17T21:13:23.709Z,539.22
2022-10-17T21:16:13.463Z,522.78
2022-10-17T21:19:01.380Z,496.73
2022-10-17T21:21:50.976Z,493.13
2022-10-17T21:24:38.869Z,526.35
2022-10-17T21:27:26.987Z,494.25
2022-10-17T21:30:14.893Z,523.92
2022-10-17T21:33:03.072Z,508.25
2022-10-17T21:35:55.808Z,505.35
2022-10-17T21:38:46.211Z,530.55
2022-10-17T21:41:34.444Z,517.67
2022-10-17T21:44:24.443Z,515.40
2022-10-17T21:47:13.873Z,510.35
2022-10-17T21:50:01.747Z,520.72
2022-10-17T21:52:49.592Z,515.97
2022-10-17T21:55:39.049Z,544.95
2022-10-17T21:58:27.689Z,499.98
2022-10-17T22:01:17.719Z,533.53
2022-10-17T22:04:07.379Z,522.60
2022-10-17T22:06:55.301Z,516.15
2022-10-17T22:09:43.145Z,526.53
2022-10-17T22:12:32.798Z,491.15
2022-10-17T22:15:20.952Z,511.92
2022-10-17T22:18:08.898Z,522.03
2022-10-17T22:20:56.779Z,498.20
2022-10-17T22:23:46.765Z,525.78
2022-10-17T22:26:36.767Z,514.13
2022-10-17T22:29:25.991Z,526.17
2022-10-17T22:32:17.522Z,535.97
2022-10-17T22:35:09.337Z,536.40
2022-10-17T22:37:57.176Z,541.88
2022-10-17T22:40:45.850Z,513.65
2022-10-17T22:43:33.832Z,531.85
2022-10-17T22:46:23.130Z,521.90
2022-10-17T22:49:11.019Z,521.92
2022-10-17T22:51:58.867Z,525.65
2022-10-17T22:54:46.764Z,523.20
2022-10-17T22:57:34.630Z,509.85
2022-10-17T23:00:22.524Z,501.23
2022-10-17T23:03:11.719Z,525.65
2022-10-17T23:05:59.974Z,520.33
2022-10-17T23:08:48.085Z,510.42
2022-10-17T23:11:35.964Z,559.13
2022-10-17T23:14:23.821Z,511.38
2022-10-17T23:17:12.584Z,516.53
2022-10-17T23:20:01.768Z,510.95
2022-10-17T23:22:49.697Z,528.45
2022-10-17T23:25:37.547Z,540.83
2022-10-17T23:28:25.453Z,523.78
2022-10-17T23:31:15.610Z,534.80
2022-10-17T23:34:03.618Z,539.45
2022-10-17T23:36:54.051Z,513.65
2022-10-17T23:39:41.918Z,532.67
2022-10-17T23:42:29.906Z,535.25
2022-10-17T23:45:18.422Z,535.22
2022-10-17T23:48:07.099Z,500.80
2022-10-17T23:50:55.853Z,505.58
2022-10-17T23:53:45.125Z,496.50
2022-10-17T23:56:33.036Z,537.50
2022-10-17T23:59:20.920Z,518.17
